createdAt,value
2023-05-06T00:02:23.159Z,12.14
2023-05-06T00:04:49.751Z,12.20
2023-05-06T00:07:16.836Z,12.20
2023-05-06T00:09:43.348Z,12.12
2023-05-06T00:12:09.950Z,12.08
2023-05-06T00:14:41.816Z,12.18
2023-05-06T00:17:08.369Z,12.28
2023-05-06T00:19:40.824Z,12.33
2023-05-06T00:22:07.389Z,12.43
2023-05-06T00:24:33.875Z,12.48
2023-05-06T00:27:01.628Z,12.38
2023-05-06T00:29:28.121Z,12.44
2023-05-06T00:31:54.729Z,12.48
2023-05-06T00:34:21.279Z,12.55
2023-05-06T00:36:47.750Z,12.63
2023-05-06T00:39:14.252Z,12.67
2023-05-06T00:41:40.707Z,12.74
2023-05-06T00:44:07.312Z,12.77
2023-05-06T00:46:33.853Z,12.78
2023-05-06T00:49:00.557Z,12.63
2023-05-06T00:51:27.516Z,12.67
2023-05-06T00:53:57.011Z,12.76
2023-05-06T00:56:23.764Z,12.71
2023-05-06T00:58:53.402Z,12.62
2023-05-06T01:01:22.808Z,12.64
2023-05-06T01:03:49.530Z,12.68
2023-05-06T01:06:45.275Z,12.44
2023-05-06T01:09:21.450Z,12.56
2023-05-06T01:12:14.374Z,12.52
2023-05-06T01:15:09.387Z,12.67
2023-05-06T01:17:44.832Z,12.65
2023-05-06T01:20:13.170Z,12.74
2023-05-06T01:22:39.702Z,12.78
2023-05-06T01:25:26.418Z,12.61
2023-05-06T01:27:52.898Z,12.72
2023-05-06T01:30:28.647Z,12.69
2023-05-06T01:33:14.882Z,12.65
2023-05-06T01:36:27.272Z,12.65
2023-05-06T01:39:24.998Z,12.56
2023-05-06T01:41:55.838Z,12.74
2023-05-06T01:44:25.181Z,12.74
2023-05-06T01:46:53.693Z,12.76
2023-05-06T01:49:23.320Z,12.78
2023-05-06T01:51:51.604Z,12.79
2023-05-06T01:54:18.732Z,12.71
2023-05-06T01:56:45.816Z,12.62
2023-05-06T01:59:16.628Z,12.48
2023-05-06T02:01:52.073Z,12.40
2023-05-06T02:04:18.599Z,12.26
2023-05-06T02:07:01.012Z,12.05
2023-05-06T02:09:27.522Z,12.17
2023-05-06T02:11:53.969Z,12.06
2023-05-06T02:14:20.465Z,12.07
2023-05-06T02:16:46.965Z,12.07
2023-05-06T02:19:13.417Z,12.16
2023-05-06T02:21:45.592Z,12.23
2023-05-06T02:24:12.441Z,12.28
2023-05-06T02:26:38.908Z,12.23
2023-05-06T02:29:05.474Z,12.19
2023-05-06T02:31:31.977Z,12.20
2023-05-06T02:33:58.428Z,12.23
2023-05-06T02:36:24.896Z,12.13
2023-05-06T02:38:51.397Z,12.06
2023-05-06T02:41:17.967Z,12.09
2023-05-06T02:43:44.457Z,12.07
2023-05-06T02:46:11.389Z,12.04
2023-05-06T02:48:49.125Z,11.91
2023-05-06T02:51:16.056Z,11.85
2023-05-06T02:53:42.515Z,11.88
2023-05-06T02:56:08.936Z,11.81
2023-05-06T02:58:35.395Z,11.78
2023-05-06T03:01:01.949Z,11.75
2023-05-06T03:03:33.763Z,11.78
2023-05-06T03:06:03.394Z,11.79
2023-05-06T03:08:29.954Z,11.77
2023-05-06T03:10:59.436Z,11.71
2023-05-06T03:13:30.937Z,11.79
2023-05-06T03:15:57.406Z,11.84
2023-05-06T03:18:26.754Z,11.85
2023-05-06T03:20:53.280Z,11.90
2023-05-06T03:23:19.804Z,11.89
2023-05-06T03:25:46.240Z,11.87
2023-05-06T03:28:12.797Z,11.87
2023-05-06T03:30:39.756Z,11.95
2023-05-06T03:33:06.382Z,11.92
2023-05-06T03:35:32.998Z,12.01
2023-05-06T03:38:07.310Z,12.08
2023-05-06T03:40:39.347Z,11.95
2023-05-06T03:43:05.856Z,12.08
2023-05-06T03:45:44.849Z,11.99
2023-05-06T03:48:14.314Z,11.97
2023-05-06T03:50:43.951Z,11.90
2023-05-06T03:53:10.707Z,11.81
2023-05-06T03:55:37.280Z,11.79
2023-05-06T03:58:03.758Z,11.46
2023-05-06T04:00:30.261Z,11.43
2023-05-06T04:02:58.836Z,11.55
2023-05-06T04:05:25.427Z,11.41
2023-05-06T04:07:51.895Z,11.37
2023-05-06T04:10:18.538Z,11.44
2023-05-06T04:12:44.999Z,11.49
2023-05-06T04:15:12.098Z,11.38
2023-05-06T04:17:41.408Z,11.42
2023-05-06T04:20:09.502Z,11.49
2023-05-06T04:22:36.058Z,11.43
2023-05-06T04:25:02.626Z,11.14
2023-05-06T04:27:29.806Z,10.88
2023-05-06T04:29:56.802Z,10.87
2023-05-06T04:32:34.074Z,10.79
2023-05-06T04:35:00.672Z,10.52
2023-05-06T04:37:28.297Z,10.67
2023-05-06T04:39:55.786Z,11.06
2023-05-06T04:42:22.651Z,11.08
2023-05-06T04:44:52.370Z,10.87
2023-05-06T04:47:18.854Z,10.94
2023-05-06T04:49:45.350Z,10.84
2023-05-06T04:52:14.178Z,10.98
2023-05-06T04:54:40.783Z,11.06
2023-05-06T04:57:10.047Z,11.14
2023-05-06T04:59:36.512Z,11.17
2023-05-06T05:02:12.265Z,11.33
2023-05-06T05:04:38.883Z,11.36
2023-05-06T05:07:05.518Z,11.38
2023-05-06T05:09:38.556Z,11.27
2023-05-06T05:12:05.459Z,11.32
2023-05-06T05:14:39.321Z,11.50
2023-05-06T05:17:05.844Z,11.58
2023-05-06T05:19:32.332Z,11.67
2023-05-06T05:21:58.922Z,11.68
2023-05-06T05:24:31.184Z,11.75
2023-05-06T05:26:57.635Z,11.67
2023-05-06T05:29:24.261Z,11.60
2023-05-06T05:31:50.746Z,11.65
2023-05-06T05:34:17.223Z,11.64
2023-05-06T05:36:43.687Z,11.72
2023-05-06T05:39:10.175Z,11.68
2023-05-06T05:41:36.675Z,11.76
2023-05-06T05:44:03.259Z,11.82
2023-05-06T05:46:29.986Z,11.86
2023-05-06T05:48:56.517Z,11.85
2023-05-06T05:51:22.986Z,11.90
2023-05-06T05:53:49.669Z,11.91
2023-05-06T05:56:16.626Z,12.02
2023-05-06T05:58:43.283Z,12.10
2023-05-06T06:01:09.785Z,12.23
2023-05-06T06:03:36.439Z,12.25
2023-05-06T06:06:03.168Z,12.34
2023-05-06T06:08:29.934Z,12.37
2023-05-06T06:10:56.462Z,12.52
2023-05-06T06:13:23.162Z,12.54
2023-05-06T06:15:50.347Z,12.51
2023-05-06T06:18:20.025Z,12.63
2023-05-06T06:20:46.688Z,12.77
2023-05-06T06:23:22.776Z,12.90
2023-05-06T06:25:49.348Z,13.06
2023-05-06T06:28:22.072Z,13.17
2023-05-06T06:30:48.571Z,13.21
2023-05-06T06:33:15.060Z,13.38
2023-05-06T06:35:41.574Z,13.45
2023-05-06T06:38:08.034Z,13.47
2023-05-06T06:40:34.531Z,13.48
2023-05-06T06:43:04.961Z,13.60
2023-05-06T06:45:31.499Z,13.60
2023-05-06T06:47:58.039Z,13.59
2023-05-06T06:50:24.594Z,13.35
2023-05-06T06:52:51.111Z,13.38
2023-05-06T06:55:17.702Z,13.55
2023-05-06T06:57:44.239Z,13.62
2023-05-06T07:00:11.567Z,13.83
2023-05-06T07:02:41.082Z,14.02
2023-05-06T07:05:08.309Z,14.17
2023-05-06T07:07:35.034Z,14.31
2023-05-06T07:10:01.592Z,14.38
2023-05-06T07:12:28.430Z,14.44
2023-05-06T07:14:54.921Z,14.52
2023-05-06T07:17:21.462Z,14.55
2023-05-06T07:19:47.994Z,14.59
2023-05-06T07:22:14.502Z,14.46
2023-05-06T07:24:41.424Z,14.48
2023-05-06T07:27:08.040Z,14.50
2023-05-06T07:29:36.602Z,14.28
2023-05-06T07:32:03.619Z,14.27
2023-05-06T07:34:30.421Z,14.20
2023-05-06T07:36:57.202Z,14.11
2023-05-06T07:39:23.698Z,14.12
2023-05-06T07:41:53.123Z,14.18
2023-05-06T07:44:19.627Z,14.17
2023-05-06T07:46:46.328Z,14.17
2023-05-06T07:49:12.825Z,14.24
2023-05-06T07:51:39.645Z,14.35
2023-05-06T07:54:06.191Z,14.47
2023-05-06T07:56:32.642Z,14.53
2023-05-06T07:58:59.910Z,14.59
2023-05-06T08:01:28.941Z,14.69
2023-05-06T08:03:55.551Z,14.77
2023-05-06T08:06:22.163Z,14.86
2023-05-06T08:08:48.691Z,14.86
2023-05-06T08:11:19.251Z,14.99
2023-05-06T08:13:47.092Z,15.03
2023-05-06T08:16:13.898Z,15.19
2023-05-06T08:18:40.548Z,15.32
2023-05-06T08:21:07.091Z,15.39
2023-05-06T08:23:33.680Z,15.40
2023-05-06T08:26:00.195Z,15.45
2023-05-06T08:28:26.791Z,15.43
2023-05-06T08:30:53.351Z,15.39
2023-05-06T08:33:20.044Z,15.57
2023-05-06T08:35:50.645Z,15.91
2023-05-06T08:38:17.137Z,16.04
2023-05-06T08:40:44.925Z,15.90
2023-05-06T08:43:14.543Z,15.89
2023-05-06T08:45:42.258Z,15.93
2023-05-06T08:48:09.440Z,16.01
2023-05-06T08:50:43.092Z,16.09
2023-05-06T08:53:13.883Z,16.25
2023-05-06T08:55:45.160Z,16.44
2023-05-06T08:58:16.713Z,16.73
2023-05-06T09:00:46.772Z,16.90
2023-05-06T09:03:13.566Z,17.01
2023-05-06T09:05:49.893Z,17.04
2023-05-06T09:08:16.411Z,17.08
2023-05-06T09:10:45.053Z,17.10
2023-05-06T09:13:20.615Z,17.08
2023-05-06T09:15:49.433Z,17.17
2023-05-06T09:18:19.788Z,17.28
2023-05-06T09:20:49.377Z,17.42
2023-05-06T09:23:18.126Z,17.65
2023-05-06T09:25:46.883Z,17.65
2023-05-06T09:28:14.522Z,17.70
2023-05-06T09:30:43.746Z,17.71
2023-05-06T09:33:11.888Z,17.83
2023-05-06T09:35:43.696Z,18.12
2023-05-06T09:38:10.680Z,18.38
2023-05-06T09:40:41.074Z,18.58
2023-05-06T09:43:08.795Z,18.49
2023-05-06T09:45:36.291Z,18.44
2023-05-06T09:48:02.901Z,18.44
2023-05-06T09:50:29.406Z,18.71
2023-05-06T09:52:56.555Z,18.85
2023-05-06T09:55:28.934Z,18.66
2023-05-06T09:57:58.098Z,18.66
2023-05-06T10:00:31.268Z,18.34
2023-05-06T10:02:58.941Z,18.22
2023-05-06T10:05:27.133Z,18.13
2023-05-06T10:07:57.218Z,18.00
2023-05-06T10:10:27.010Z,17.99
2023-05-06T10:12:54.336Z,18.00
2023-05-06T10:15:21.822Z,17.94
2023-05-06T10:17:52.533Z,17.93
2023-05-06T10:20:24.137Z,17.94
2023-05-06T10:23:29.381Z,18.07
2023-05-06T10:26:01.240Z,18.24
2023-05-06T10:28:30.935Z,18.38
2023-05-06T10:30:59.746Z,18.52
2023-05-06T10:33:27.534Z,18.75
2023-05-06T10:36:21.327Z,19.08
2023-05-06T10:38:56.554Z,19.18
2023-05-06T10:41:27.842Z,19.35
2023-05-06T10:43:57.216Z,19.43
2023-05-06T10:46:29.048Z,19.75
2023-05-06T10:49:04.405Z,19.91
2023-05-06T10:51:41.255Z,19.99
2023-05-06T10:54:26.564Z,20.16
2023-05-06T10:56:53.144Z,20.07
2023-05-06T10:59:24.912Z,20.36
2023-05-06T11:01:57.107Z,20.57
2023-05-06T11:04:23.873Z,20.40
2023-05-06T11:06:53.604Z,20.37
2023-05-06T11:09:26.794Z,20.54
2023-05-06T11:12:06.488Z,20.86
2023-05-06T11:14:35.738Z,20.93
2023-05-06T11:17:08.617Z,21.19
2023-05-06T11:19:39.948Z,21.16
2023-05-06T11:22:07.369Z,21.24
2023-05-06T11:24:41.609Z,21.11
2023-05-06T11:27:10.260Z,21.02
2023-05-06T11:29:37.856Z,20.96
2023-05-06T11:32:21.843Z,20.78
2023-05-06T11:34:48.452Z,20.86
2023-05-06T11:37:28.921Z,21.13
2023-05-06T11:39:55.682Z,21.27
2023-05-06T11:42:28.675Z,21.33
2023-05-06T11:44:55.951Z,21.62
2023-05-06T11:47:23.821Z,21.78
2023-05-06T11:49:54.183Z,22.00
2023-05-06T11:52:21.154Z,22.09
2023-05-06T11:54:49.632Z,22.11
2023-05-06T11:57:16.808Z,22.12
2023-05-06T11:59:43.261Z,22.32
2023-05-06T12:02:14.157Z,22.46
2023-05-06T12:04:47.307Z,22.52
2023-05-06T12:07:16.283Z,22.53
2023-05-06T12:09:49.108Z,22.80
2023-05-06T12:12:22.309Z,22.68
2023-05-06T12:14:52.901Z,22.92
2023-05-06T12:17:20.041Z,23.10
2023-05-06T12:19:47.271Z,22.89
2023-05-06T12:22:18.669Z,23.12
2023-05-06T12:24:46.658Z,23.03
2023-05-06T12:27:13.283Z,22.74
2023-05-06T12:29:40.075Z,22.84
2023-05-06T12:32:11.525Z,23.29
2023-05-06T12:34:41.621Z,23.27
2023-05-06T12:37:08.773Z,23.25
2023-05-06T12:39:41.167Z,22.99
2023-05-06T12:42:07.679Z,22.91
2023-05-06T12:44:38.135Z,22.77
2023-05-06T12:47:07.672Z,22.69
2023-05-06T12:49:52.789Z,22.69
2023-05-06T12:52:28.613Z,22.86
2023-05-06T12:54:56.287Z,22.79
2023-05-06T12:57:23.226Z,22.82
2023-05-06T12:59:49.944Z,22.97
2023-05-06T13:02:16.556Z,23.04
2023-05-06T13:04:44.099Z,23.04
2023-05-06T13:07:10.653Z,22.72
2023-05-06T13:09:37.128Z,22.78
2023-05-06T13:12:04.986Z,22.99
2023-05-06T13:14:31.555Z,22.97
2023-05-06T13:17:00.997Z,23.06
2023-05-06T13:19:33.012Z,23.23
2023-05-06T13:22:00.592Z,23.30
2023-05-06T13:24:27.484Z,23.41
2023-05-06T13:26:53.943Z,23.74
2023-05-06T13:29:20.609Z,23.87
2023-05-06T13:31:47.243Z,23.88
2023-05-06T13:34:13.764Z,23.90
2023-05-06T13:36:40.336Z,23.93
2023-05-06T13:39:06.812Z,23.92
2023-05-06T13:41:33.574Z,24.00
2023-05-06T13:44:00.199Z,23.97
2023-05-06T13:46:29.756Z,23.95
2023-05-06T13:48:56.369Z,23.95
2023-05-06T13:51:22.854Z,23.86
2023-05-06T13:53:49.429Z,23.90
2023-05-06T13:56:15.881Z,24.08
2023-05-06T13:58:42.350Z,24.13
2023-05-06T14:01:08.788Z,24.20
2023-05-06T14:03:35.322Z,23.87
2023-05-06T14:06:02.031Z,23.99
2023-05-06T14:08:28.652Z,24.01
2023-05-06T14:10:55.160Z,23.87
2023-05-06T14:13:21.752Z,23.89
2023-05-06T14:15:48.469Z,23.89
2023-05-06T14:18:15.021Z,24.01
2023-05-06T14:20:41.549Z,24.09
2023-05-06T14:23:08.353Z,23.86
2023-05-06T14:25:35.979Z,23.84
2023-05-06T14:28:02.518Z,24.04
2023-05-06T14:30:29.899Z,24.10
2023-05-06T14:32:56.499Z,24.04
2023-05-06T14:35:23.223Z,23.86
2023-05-06T14:37:49.882Z,23.88
2023-05-06T14:40:17.146Z,23.78
2023-05-06T14:42:45.285Z,23.79
2023-05-06T14:45:13.652Z,23.76
2023-05-06T14:47:40.716Z,23.67
2023-05-06T14:50:09.517Z,23.61
2023-05-06T14:52:38.215Z,23.47
2023-05-06T14:55:08.110Z,23.34
2023-05-06T14:57:35.213Z,23.35
2023-05-06T15:00:09.819Z,23.40
2023-05-06T15:02:38.109Z,23.53
2023-05-06T15:05:05.559Z,23.53
2023-05-06T15:07:32.069Z,23.47
2023-05-06T15:09:58.572Z,23.50
2023-05-06T15:12:25.153Z,23.31
2023-05-06T15:14:51.780Z,23.25
2023-05-06T15:17:18.313Z,23.21
2023-05-06T15:19:44.800Z,22.87
2023-05-06T15:22:11.302Z,22.96
2023-05-06T15:24:37.825Z,23.01
2023-05-06T15:27:04.407Z,23.02
2023-05-06T15:29:30.942Z,23.04
2023-05-06T15:31:57.530Z,22.96
2023-05-06T15:34:24.501Z,22.92
2023-05-06T15:36:53.521Z,22.81
2023-05-06T15:39:20.117Z,22.65
2023-05-06T15:41:48.048Z,22.64
2023-05-06T15:44:16.343Z,22.61
2023-05-06T15:46:43.325Z,22.52
2023-05-06T15:49:39.496Z,22.42
2023-05-06T15:51:59.007Z,22.35
2023-05-06T15:54:27.335Z,22.29
2023-05-06T15:56:54.053Z,22.02
2023-05-06T15:59:20.530Z,21.36
2023-05-06T16:04:17.024Z,20.47
2023-05-06T16:06:43.648Z,20.40
2023-05-06T16:09:10.366Z,20.50
2023-05-06T16:11:36.953Z,20.30
2023-05-06T16:14:03.992Z,20.33
2023-05-06T16:16:30.592Z,20.45
2023-05-06T16:18:57.197Z,20.35
2023-05-06T16:21:23.969Z,20.41
2023-05-06T16:23:50.792Z,20.20
2023-05-06T16:26:17.752Z,19.87
2023-05-06T16:28:44.379Z,19.84
2023-05-06T16:31:10.977Z,19.85
2023-05-06T16:33:37.517Z,19.86
2023-05-06T16:36:04.355Z,19.73
2023-05-06T16:38:30.872Z,19.87
2023-05-06T16:40:57.369Z,19.86
2023-05-06T16:43:23.881Z,19.92
2023-05-06T16:45:50.570Z,19.61
2023-05-06T16:48:17.263Z,19.56
2023-05-06T16:50:43.825Z,19.56
2023-05-06T16:53:10.588Z,19.65
2023-05-06T16:55:37.126Z,19.53
2023-05-06T16:58:04.102Z,19.41
2023-05-06T17:00:31.965Z,19.35
2023-05-06T17:02:58.766Z,19.35
2023-05-06T17:05:25.713Z,19.34
2023-05-06T17:07:52.601Z,19.27
2023-05-06T17:10:19.192Z,19.28
2023-05-06T17:12:46.037Z,19.28
2023-05-06T17:15:12.532Z,19.28
2023-05-06T17:17:40.029Z,19.26
2023-05-06T17:20:07.839Z,19.26
2023-05-06T17:22:34.456Z,19.22
2023-05-06T17:25:00.937Z,19.07
2023-05-06T17:27:27.489Z,19.09
2023-05-06T17:29:54.061Z,19.05
2023-05-06T17:32:20.701Z,19.05
2023-05-06T17:34:47.219Z,19.02
2023-05-06T17:37:13.760Z,19.01
2023-05-06T17:39:40.306Z,19.03
2023-05-06T17:42:06.929Z,19.02
2023-05-06T17:44:35.185Z,18.94
2023-05-06T17:47:01.821Z,18.85
2023-05-06T17:49:28.350Z,18.74
2023-05-06T17:51:55.932Z,18.74
2023-05-06T17:54:22.992Z,18.53
2023-05-06T17:56:52.647Z,18.48
2023-05-06T17:59:23.001Z,18.42
2023-05-06T18:01:49.654Z,18.33
2023-05-06T18:04:16.346Z,18.48
2023-05-06T18:06:46.328Z,18.43
2023-05-06T18:09:12.942Z,18.25
2023-05-06T18:11:40.339Z,18.12
2023-05-06T18:14:06.967Z,18.11
2023-05-06T18:16:33.587Z,18.07
2023-05-06T18:19:04.972Z,17.95
2023-05-06T18:21:33.804Z,17.99
2023-05-06T18:24:10.116Z,18.02
2023-05-06T18:26:45.289Z,18.03
2023-05-06T18:29:12.741Z,17.93
2023-05-06T18:31:39.448Z,17.84
2023-05-06T18:34:06.079Z,17.74
2023-05-06T18:36:33.537Z,17.64
2023-05-06T18:39:01.221Z,17.47
2023-05-06T18:41:27.778Z,17.49
2023-05-06T18:43:54.307Z,17.53
2023-05-06T18:46:21.382Z,17.53
2023-05-06T18:48:48.132Z,17.55
2023-05-06T18:51:17.125Z,17.58
2023-05-06T18:53:44.812Z,17.61
2023-05-06T18:56:11.874Z,17.62
2023-05-06T18:58:40.514Z,17.58
2023-05-06T19:01:09.738Z,17.49
2023-05-06T19:03:37.893Z,17.29
2023-05-06T19:06:10.514Z,17.02
2023-05-06T19:08:37.677Z,16.95
2023-05-06T19:11:04.367Z,16.96
2023-05-06T19:13:31.211Z,17.06
2023-05-06T19:15:57.818Z,17.16
2023-05-06T19:18:24.419Z,17.19
2023-05-06T19:20:51.424Z,17.17
2023-05-06T19:23:19.144Z,17.07
2023-05-06T19:25:45.897Z,16.90
2023-05-06T19:28:12.459Z,16.77
2023-05-06T19:30:39.141Z,16.68
2023-05-06T19:33:05.721Z,16.73
2023-05-06T19:35:39.648Z,16.77
2023-05-06T19:38:09.313Z,16.77
2023-05-06T19:40:35.899Z,16.82
2023-05-06T19:43:05.466Z,16.77
2023-05-06T19:45:33.450Z,16.73
2023-05-06T19:48:01.211Z,16.66
2023-05-06T19:50:28.426Z,16.65
2023-05-06T19:52:54.888Z,16.70
2023-05-06T19:55:22.157Z,16.64
2023-05-06T19:57:50.322Z,16.61
2023-05-06T20:00:19.911Z,16.50
2023-05-06T20:02:46.611Z,16.40
2023-05-06T20:05:13.663Z,16.41
2023-05-06T20:07:41.188Z,16.39
2023-05-06T20:10:09.991Z,16.35
2023-05-06T20:12:36.561Z,16.27
2023-05-06T20:15:06.866Z,16.34
2023-05-06T20:17:34.520Z,16.29
2023-05-06T20:20:02.746Z,16.28
2023-05-06T20:22:32.262Z,16.29
2023-05-06T20:25:12.948Z,16.16
2023-05-06T20:27:39.573Z,16.30
2023-05-06T20:30:08.050Z,16.34
2023-05-06T20:32:34.950Z,16.19
2023-05-06T20:35:01.650Z,16.08
2023-05-06T20:37:29.302Z,16.04
2023-05-06T20:39:56.296Z,15.97
2023-05-06T20:42:22.823Z,16.01
2023-05-06T20:44:51.281Z,15.98
2023-05-06T20:47:18.455Z,15.95
2023-05-06T20:49:45.000Z,16.00
2023-05-06T20:52:14.385Z,16.01
2023-05-06T20:54:45.429Z,15.95
2023-05-06T20:57:15.195Z,15.94
2023-05-06T20:59:42.751Z,16.01
2023-05-06T21:02:10.016Z,16.05
2023-05-06T21:04:36.664Z,15.97
2023-05-06T21:07:03.324Z,15.96
2023-05-06T21:09:29.821Z,16.00
2023-05-06T21:11:56.624Z,16.03
2023-05-06T21:14:26.420Z,16.00
2023-05-06T21:16:53.706Z,15.98
2023-05-06T21:19:20.668Z,15.94
2023-05-06T21:21:47.190Z,15.91
2023-05-06T21:24:13.795Z,15.80
2023-05-06T21:26:40.264Z,15.82
2023-05-06T21:29:06.845Z,15.79
2023-05-06T21:31:33.555Z,15.75
2023-05-06T21:34:00.312Z,15.77
2023-05-06T21:36:27.109Z,15.78
2023-05-06T21:39:07.923Z,15.64
2023-05-06T21:41:35.942Z,15.76
2023-05-06T21:44:04.195Z,15.79
2023-05-06T21:46:31.716Z,15.83
2023-05-06T21:48:59.485Z,15.76
2023-05-06T21:51:37.599Z,15.72
2023-05-06T21:54:04.224Z,15.77
2023-05-06T21:56:30.768Z,15.70
2023-05-06T21:58:57.243Z,15.68
2023-05-06T22:01:26.183Z,15.65
2023-05-06T22:03:53.961Z,15.59
2023-05-06T22:06:21.150Z,15.64
2023-05-06T22:08:47.681Z,15.63
2023-05-06T22:11:14.355Z,15.61
2023-05-06T22:13:40.905Z,15.58
2023-05-06T22:16:08.001Z,15.56
2023-05-06T22:18:35.886Z,15.47
2023-05-06T22:21:03.161Z,15.50
2023-05-06T22:23:29.809Z,15.52
2023-05-06T22:26:00.248Z,15.49
2023-05-06T22:28:26.941Z,15.46
2023-05-06T22:30:53.449Z,15.44
2023-05-06T22:33:24.953Z,15.43
2023-05-06T22:35:51.496Z,15.41
2023-05-06T22:38:18.029Z,15.51
2023-05-06T22:40:44.552Z,15.54
2023-05-06T22:43:11.028Z,15.61
2023-05-06T22:45:37.751Z,15.57
2023-05-06T22:48:05.326Z,15.50
2023-05-06T22:50:34.748Z,15.54
2023-05-06T22:53:07.531Z,15.49
2023-05-06T22:55:41.299Z,15.35
2023-05-06T22:58:07.759Z,15.36
2023-05-06T23:00:34.328Z,15.32
2023-05-06T23:03:00.867Z,15.21
2023-05-06T23:05:27.399Z,15.09
2023-05-06T23:07:53.915Z,15.13
2023-05-06T23:10:20.469Z,15.13
2023-05-06T23:12:47.045Z,15.13
2023-05-06T23:15:20.345Z,15.12
2023-05-06T23:17:46.855Z,14.97
2023-05-06T23:20:13.654Z,14.84
2023-05-06T23:22:40.390Z,14.79
2023-05-06T23:25:09.350Z,14.69
2023-05-06T23:27:39.965Z,14.55
2023-05-06T23:30:08.870Z,14.46
2023-05-06T23:32:38.712Z,14.40
2023-05-06T23:35:07.143Z,14.32
2023-05-06T23:37:33.881Z,14.30
2023-05-06T23:40:00.466Z,14.21
2023-05-06T23:42:27.080Z,14.18
2023-05-06T23:44:53.628Z,14.09
2023-05-06T23:47:20.116Z,14.00
2023-05-06T23:49:46.772Z,14.06
2023-05-06T23:52:13.218Z,14.03
2023-05-06T23:54:39.728Z,13.88
2023-05-06T23:57:06.461Z,13.80
2023-05-06T23:59:32.908Z,13.75
